Time;durP1;ratioP1;P1;durP2;ratioP2;P2;SDS_P1;SDS_P2;PMS_P1;PMS_P2;Temp;Humidity;BMP_temperature;BMP_pressure;BME280_temperature;BME280_humidity;BME280_pressure;Samples;Min_cycle;Max_cycle;Signal;HPM_P1;HPM_P2
2023/03/09 00:02:00;;;;;;;3.20;2.85;;;;;;;;;;5135505;27;20122;-62
2023/03/09 00:04:26;;;;;;;4.03;2.78;;;;;;;;;;5135897;27;20057;-62
2023/03/09 00:06:52;;;;;;;4.30;3.35;;;;;;;;;;5136333;27;20049;-61
2023/03/09 00:09:18;;;;;;;4.32;2.95;;;;;;;;;;5135479;27;20035;-62
2023/03/09 00:11:47;;;;;;;4.45;3.17;;;;;;;;;;5135514;27;20512;-60
2023/03/09 00:14:13;;;;;;;5.65;4.10;;;;;;;;;;5135689;27;20088;-61
2023/03/09 00:16:40;;;;;;;3.70;3.28;;;;;;;;;;5136769;27;20043;-62
2023/03/09 00:19:06;;;;;;;4.40;3.38;;;;;;;;;;5134924;27;20039;-61
2023/03/09 00:21:48;;;;;;;4.28;3.22;;;;;;;;;;5136204;27;20123;-61
2023/03/09 00:24:16;;;;;;;4.35;3.55;;;;;;;;;;5134626;27;20505;-62
2023/03/09 00:26:43;;;;;;;3.95;3.10;;;;;;;;;;5134289;27;20054;-62
2023/03/09 00:29:11;;;;;;;4.80;3.75;;;;;;;;;;5135326;27;20486;-61
2023/03/09 00:31:37;;;;;;;5.25;4.03;;;;;;;;;;5136126;27;20513;-63
2023/03/09 00:34:03;;;;;;;4.60;3.33;;;;;;;;;;5133878;27;20603;-61
2023/03/09 00:36:29;;;;;;;4.85;3.72;;;;;;;;;;5136742;27;20074;-62
2023/03/09 00:38:56;;;;;;;4.57;3.25;;;;;;;;;;5134503;27;20104;-61
2023/03/09 00:41:22;;;;;;;4.68;3.28;;;;;;;;;;5134723;27;20043;-62
2023/03/09 00:43:49;;;;;;;4.38;3.47;;;;;;;;;;5135576;27;20035;-62
2023/03/09 00:46:15;;;;;;;5.38;3.63;;;;;;;;;;5135085;27;20127;-61
2023/03/09 00:48:41;;;;;;;3.90;3.47;;;;;;;;;;5134874;27;20038;-62
2023/03/09 00:51:08;;;;;;;4.97;3.90;;;;;;;;;;5134676;27;20042;-62
2023/03/09 00:53:34;;;;;;;4.65;3.72;;;;;;;;;;5116623;27;20075;-61
2023/03/09 00:56:01;;;;;;;4.22;3.38;;;;;;;;;;5133950;27;20477;-62
2023/03/09 00:58:27;;;;;;;4.10;3.50;;;;;;;;;;5136263;27;20051;-61
2023/03/09 01:00:53;;;;;;;3.60;2.92;;;;;;;;;;5134429;27;20283;-61
2023/03/09 01:03:19;;;;;;;4.20;3.53;;;;;;;;;;5133483;27;20038;-61
2023/03/09 01:05:45;;;;;;;3.45;2.88;;;;;;;;;;5134682;27;20103;-62
2023/03/09 01:08:11;;;;;;;4.68;3.00;;;;;;;;;;5136955;27;20080;-62
2023/03/09 01:10:41;;;;;;;4.72;3.40;;;;;;;;;;5139467;27;20431;-62
2023/03/09 01:13:07;;;;;;;4.63;3.65;;;;;;;;;;5138204;27;20046;-61
2023/03/09 01:15:33;;;;;;;4.00;3.05;;;;;;;;;;5136408;27;20629;-61
2023/03/09 01:17:59;;;;;;;4.57;3.63;;;;;;;;;;5137653;27;20086;-61
2023/03/09 01:20:25;;;;;;;6.32;3.60;;;;;;;;;;5118541;27;20095;-61
2023/03/09 01:22:52;;;;;;;3.50;3.10;;;;;;;;;;5137708;27;20043;-61
2023/03/09 01:25:18;;;;;;;4.20;2.92;;;;;;;;;;5138094;27;20520;-61
2023/03/09 01:27:44;;;;;;;3.58;3.15;;;;;;;;;;5139271;27;20120;-61
2023/03/09 01:30:11;;;;;;;3.30;2.75;;;;;;;;;;5137647;27;20983;-62
2023/03/09 01:32:37;;;;;;;3.03;2.38;;;;;;;;;;5138857;27;20054;-61
2023/03/09 01:35:04;;;;;;;3.28;2.78;;;;;;;;;;5137470;27;20042;-61
2023/03/09 01:37:30;;;;;;;3.25;2.70;;;;;;;;;;5138629;27;20043;-61
2023/03/09 01:39:56;;;;;;;3.70;3.25;;;;;;;;;;5136915;27;20047;-61
2023/03/09 01:42:22;;;;;;;5.00;3.45;;;;;;;;;;5137953;27;20046;-61
2023/03/09 01:45:09;;;;;;;4.63;3.92;;;;;;;;;;5138488;27;20635;-61
2023/03/09 01:47:35;;;;;;;4.93;3.90;;;;;;;;;;5137983;27;20047;-61
2023/03/09 01:50:02;;;;;;;4.05;3.40;;;;;;;;;;5135679;27;20066;-61
2023/03/09 01:52:30;;;;;;;5.00;3.65;;;;;;;;;;5139383;27;20074;-61
2023/03/09 01:55:00;;;;;;;5.00;4.10;;;;;;;;;;5138004;27;20043;-61
2023/03/09 01:57:32;;;;;;;5.22;3.53;;;;;;;;;;5138170;27;20044;-62
2023/03/09 02:00:11;;;;;;;5.10;3.50;;;;;;;;;;5137026;27;20047;-61
2023/03/09 02:02:39;;;;;;;4.47;3.47;;;;;;;;;;5138990;27;20138;-61
2023/03/09 02:05:07;;;;;;;3.58;3.15;;;;;;;;;;5137133;27;20043;-62
2023/03/09 02:07:35;;;;;;;5.10;3.90;;;;;;;;;;5138480;27;20134;-61
2023/03/09 02:10:01;;;;;;;5.15;4.03;;;;;;;;;;5137477;27;20050;-61
2023/03/09 02:12:28;;;;;;;5.07;3.72;;;;;;;;;;5119469;27;20055;-62
2023/03/09 02:14:54;;;;;;;6.03;4.22;;;;;;;;;;5137908;27;20536;-61
2023/03/09 02:17:20;;;;;;;5.50;3.53;;;;;;;;;;5138354;27;20482;-62
2023/03/09 02:19:54;;;;;;;5.07;3.67;;;;;;;;;;5137104;27;20042;-61
2023/03/09 02:22:20;;;;;;;5.38;4.05;;;;;;;;;;5138035;27;20039;-61
2023/03/09 02:24:58;;;;;;;6.38;4.20;;;;;;;;;;5138265;27;20162;-62
2023/03/09 02:27:26;;;;;;;5.85;4.28;;;;;;;;;;5137474;27;20042;-62
2023/03/09 02:29:52;;;;;;;4.13;3.35;;;;;;;;;;5137763;27;20043;-61
2023/03/09 02:32:19;;;;;;;3.78;3.38;;;;;;;;;;5117812;27;20501;-61
2023/03/09 02:34:45;;;;;;;3.55;2.97;;;;;;;;;;5136680;27;20046;-62
2023/03/09 02:37:24;;;;;;;5.22;3.60;;;;;;;;;;5137209;27;20035;-62
2023/03/09 02:39:50;;;;;;;4.30;2.88;;;;;;;;;;5136895;27;20099;-61
2023/03/09 02:42:18;;;;;;;4.78;3.10;;;;;;;;;;5137061;27;20393;-63
2023/03/09 02:44:44;;;;;;;5.72;3.58;;;;;;;;;;5137216;27;20062;-62
2023/03/09 02:47:13;;;;;;;4.90;3.75;;;;;;;;;;5132885;27;20043;-62
2023/03/09 02:49:39;;;;;;;5.38;4.07;;;;;;;;;;5136149;27;20050;-62
2023/03/09 02:52:06;;;;;;;5.63;4.15;;;;;;;;;;5138992;27;20043;-62
2023/03/09 02:54:31;;;;;;;5.60;3.95;;;;;;;;;;5137626;27;20079;-62
2023/03/09 02:56:57;;;;;;;6.78;4.10;;;;;;;;;;5136900;27;20485;-62
2023/03/09 02:59:23;;;;;;;5.60;3.75;;;;;;;;;;5135515;27;20039;-62
2023/03/09 03:01:49;;;;;;;6.97;4.40;;;;;;;;;;5138912;27;20047;-62
2023/03/09 03:04:15;;;;;;;8.25;5.30;;;;;;;;;;5141438;27;20121;-62
2023/03/09 03:06:41;;;;;;;7.20;4.60;;;;;;;;;;5134860;27;20035;-62
2023/03/09 03:09:07;;;;;;;7.10;5.28;;;;;;;;;;5135961;27;20054;-61
2023/03/09 03:11:33;;;;;;;7.25;5.00;;;;;;;;;;5139370;27;20091;-62
2023/03/09 03:13:59;;;;;;;8.30;5.75;;;;;;;;;;5140671;27;20051;-62
2023/03/09 03:16:25;;;;;;;8.65;4.85;;;;;;;;;;5136401;27;20042;-62
2023/03/09 03:18:51;;;;;;;6.55;4.55;;;;;;;;;;5137062;27;20493;-62
2023/03/09 03:21:18;;;;;;;7.10;5.07;;;;;;;;;;5135076;27;20043;-62
2023/03/09 03:23:44;;;;;;;8.27;5.05;;;;;;;;;;5101746;27;20047;-61
2023/03/09 03:26:10;;;;;;;7.20;4.65;;;;;;;;;;5135877;27;20049;-62
2023/03/09 03:28:37;;;;;;;7.88;4.97;;;;;;;;;;5136571;27;20502;-62
2023/03/09 03:31:03;;;;;;;7.53;4.75;;;;;;;;;;5135014;27;20400;-62
2023/03/09 03:33:29;;;;;;;7.22;4.75;;;;;;;;;;5136179;27;20050;-61
2023/03/09 03:35:56;;;;;;;7.00;4.80;;;;;;;;;;5134109;27;20465;-62
2023/03/09 03:38:22;;;;;;;8.13;5.07;;;;;;;;;;5136500;27;20038;-62
2023/03/09 03:40:48;;;;;;;7.07;4.78;;;;;;;;;;5135471;27;20127;-62
2023/03/09 03:43:15;;;;;;;7.97;5.10;;;;;;;;;;5134254;27;20043;-62
2023/03/09 03:45:41;;;;;;;8.38;5.72;;;;;;;;;;5118049;27;20058;-62
2023/03/09 03:48:07;;;;;;;8.43;5.45;;;;;;;;;;5133736;27;20042;-62
2023/03/09 03:50:33;;;;;;;8.77;5.57;;;;;;;;;;5134834;27;20051;-62
2023/03/09 03:52:59;;;;;;;9.48;6.35;;;;;;;;;;5134359;27;20050;-62
2023/03/09 03:55:25;;;;;;;10.77;7.10;;;;;;;;;;5135270;27;20054;-62
2023/03/09 03:57:51;;;;;;;9.80;6.38;;;;;;;;;;5134151;27;20147;-61
2023/03/09 04:00:19;;;;;;;10.10;7.45;;;;;;;;;;5134849;27;20050;-62
2023/03/09 04:02:45;;;;;;;8.73;5.93;;;;;;;;;;5135600;27;20043;-61
2023/03/09 04:05:11;;;;;;;11.13;6.70;;;;;;;;;;5133549;27;20512;-62
2023/03/09 04:07:37;;;;;;;9.45;6.97;;;;;;;;;;5135680;27;20134;-62
2023/03/09 04:10:04;;;;;;;9.77;6.68;;;;;;;;;;5133751;27;20084;-62
2023/03/09 04:12:30;;;;;;;12.70;7.78;;;;;;;;;;5134549;27;20122;-62
2023/03/09 04:14:56;;;;;;;13.57;8.65;;;;;;;;;;5135200;27;20150;-62
2023/03/09 04:17:22;;;;;;;12.60;9.10;;;;;;;;;;5134479;27;20122;-62
2023/03/09 04:19:48;;;;;;;12.82;8.38;;;;;;;;;;5134251;27;20488;-62
2023/03/09 04:22:14;;;;;;;11.60;7.80;;;;;;;;;;5135832;27;20508;-62
2023/03/09 04:24:40;;;;;;;9.40;6.35;;;;;;;;;;5135165;27;20082;-62
2023/03/09 04:27:06;;;;;;;8.05;5.93;;;;;;;;;;5133843;27;20039;-62
2023/03/09 04:29:32;;;;;;;10.50;6.35;;;;;;;;;;5135342;27;20047;-61
2023/03/09 04:31:58;;;;;;;7.75;5.80;;;;;;;;;;5132359;27;20557;-63
2023/03/09 04:34:24;;;;;;;10.13;6.55;;;;;;;;;;5134036;27;20402;-62
2023/03/09 04:36:50;;;;;;;11.80;7.47;;;;;;;;;;5135930;27;20497;-62
2023/03/09 04:39:16;;;;;;;9.63;6.78;;;;;;;;;;5132742;27;20548;-62
2023/03/09 04:41:42;;;;;;;9.68;6.30;;;;;;;;;;5134536;27;20047;-62
2023/03/09 04:44:08;;;;;;;10.93;6.53;;;;;;;;;;5132904;27;20049;-62
2023/03/09 04:46:34;;;;;;;7.50;5.40;;;;;;;;;;5134313;27;20043;-62
2023/03/09 04:49:00;;;;;;;8.93;5.97;;;;;;;;;;5133575;27;20444;-61
2023/03/09 04:51:26;;;;;;;8.60;6.28;;;;;;;;;;5134795;27;20042;-62
2023/03/09 04:53:52;;;;;;;8.52;6.55;;;;;;;;;;5133449;27;20422;-62
2023/03/09 04:56:18;;;;;;;7.30;5.32;;;;;;;;;;5133863;27;20074;-63
2023/03/09 04:58:44;;;;;;;6.00;4.18;;;;;;;;;;5135015;27;20116;-62
2023/03/09 05:01:10;;;;;;;7.97;5.15;;;;;;;;;;5133058;27;20927;-62
2023/03/09 05:03:36;;;;;;;6.78;4.65;;;;;;;;;;5117161;27;20057;-62
2023/03/09 05:06:02;;;;;;;10.13;6.32;;;;;;;;;;5133385;27;20050;-63
2023/03/09 05:08:28;;;;;;;10.43;5.97;;;;;;;;;;5134137;27;20040;-63
2023/03/09 05:10:54;;;;;;;7.57;5.50;;;;;;;;;;5134046;27;20058;-62
2023/03/09 05:13:20;;;;;;;8.70;5.63;;;;;;;;;;5133470;27;20181;-62
2023/03/09 05:15:46;;;;;;;8.57;5.60;;;;;;;;;;5133524;27;20047;-62
2023/03/09 05:18:12;;;;;;;8.05;5.28;;;;;;;;;;5134033;27;20070;-63
2023/03/09 05:20:39;;;;;;;9.80;5.82;;;;;;;;;;5116425;27;20081;-63
2023/03/09 05:23:05;;;;;;;9.32;5.97;;;;;;;;;;5133246;27;20042;-62
2023/03/09 05:25:31;;;;;;;7.95;6.10;;;;;;;;;;5120217;27;20557;-62
2023/03/09 05:27:57;;;;;;;7.72;5.50;;;;;;;;;;5135283;27;20125;-62
2023/03/09 05:30:23;;;;;;;10.85;7.05;;;;;;;;;;5138346;27;20051;-62
2023/03/09 05:32:49;;;;;;;10.05;6.55;;;;;;;;;;5137694;27;20042;-62
2023/03/09 05:35:16;;;;;;;11.55;7.32;;;;;;;;;;5136478;27;20054;-62
2023/03/09 05:37:43;;;;;;;9.32;6.20;;;;;;;;;;5143771;27;20158;-62
2023/03/09 05:40:10;;;;;;;9.38;6.65;;;;;;;;;;5136140;27;20440;-61
2023/03/09 05:42:36;;;;;;;8.60;6.05;;;;;;;;;;5136005;27;20039;-62
2023/03/09 05:45:04;;;;;;;7.93;5.85;;;;;;;;;;5135669;27;20057;-62
2023/03/09 05:47:30;;;;;;;6.88;4.78;;;;;;;;;;5133708;27;20053;-61
2023/03/09 05:49:56;;;;;;;8.25;5.30;;;;;;;;;;5135131;27;20043;-62
2023/03/09 05:52:22;;;;;;;8.27;5.22;;;;;;;;;;5137175;27;20112;-62
2023/03/09 05:54:48;;;;;;;8.32;5.93;;;;;;;;;;5140330;27;20413;-61
2023/03/09 05:57:14;;;;;;;7.90;5.30;;;;;;;;;;5135917;27;20050;-62
2023/03/09 05:59:40;;;;;;;6.82;4.95;;;;;;;;;;5140166;27;20072;-62
2023/03/09 06:02:06;;;;;;;9.57;6.57;;;;;;;;;;5139012;27;20038;-62
2023/03/09 06:04:33;;;;;;;9.65;6.78;;;;;;;;;;5139234;27;20519;-61
2023/03/09 06:06:59;;;;;;;10.95;6.25;;;;;;;;;;5144836;27;20058;-62
2023/03/09 06:09:25;;;;;;;8.02;5.72;;;;;;;;;;5138946;27;20083;-62
2023/03/09 06:11:51;;;;;;;8.32;4.93;;;;;;;;;;5142344;27;20427;-61
2023/03/09 06:14:17;;;;;;;8.55;6.05;;;;;;;;;;5141526;27;20449;-62
2023/03/09 06:16:43;;;;;;;6.70;4.78;;;;;;;;;;5138519;27;20662;-62
2023/03/09 06:19:09;;;;;;;7.72;5.18;;;;;;;;;;5121846;27;20046;-62
2023/03/09 06:21:36;;;;;;;5.40;4.20;;;;;;;;;;5138227;27;20046;-61
2023/03/09 06:24:02;;;;;;;6.07;4.43;;;;;;;;;;5140097;27;20039;-62
2023/03/09 06:26:28;;;;;;;5.38;3.83;;;;;;;;;;5137845;27;20043;-62
2023/03/09 06:28:54;;;;;;;6.30;4.35;;;;;;;;;;5139934;27;20049;-61
2023/03/09 06:31:21;;;;;;;5.50;3.72;;;;;;;;;;5139572;27;20034;-61
2023/03/09 06:33:47;;;;;;;5.80;3.78;;;;;;;;;;5140967;27;20050;-62
2023/03/09 06:36:14;;;;;;;5.30;3.85;;;;;;;;;;5138596;27;20084;-61
2023/03/09 06:38:41;;;;;;;6.00;3.88;;;;;;;;;;5138927;27;20039;-62
2023/03/09 06:41:07;;;;;;;6.68;4.10;;;;;;;;;;5140355;27;20034;-61
2023/03/09 06:43:33;;;;;;;5.00;3.83;;;;;;;;;;5134713;27;20039;-62
2023/03/09 06:45:59;;;;;;;6.05;4.60;;;;;;;;;;5136431;27;20031;-61
2023/03/09 06:48:26;;;;;;;7.65;4.93;;;;;;;;;;5138521;27;20449;-62
2023/03/09 06:50:52;;;;;;;4.43;3.83;;;;;;;;;;5137404;27;20558;-62
2023/03/09 06:53:18;;;;;;;6.68;4.57;;;;;;;;;;5140918;27;20043;-62
2023/03/09 06:55:44;;;;;;;5.35;4.35;;;;;;;;;;5136731;27;20051;-62
2023/03/09 06:58:10;;;;;;;7.38;5.28;;;;;;;;;;5119652;27;20054;-62
2023/03/09 07:00:40;;;;;;;9.02;6.00;;;;;;;;;;5138851;27;20039;-62
2023/03/09 07:03:06;;;;;;;10.25;6.47;;;;;;;;;;5139699;27;20070;-62
2023/03/09 07:05:33;;;;;;;8.82;5.80;;;;;;;;;;5139847;27;20053;-62
2023/03/09 07:07:59;;;;;;;7.60;5.32;;;;;;;;;;5137812;27;20557;-61
2023/03/09 07:10:24;;;;;;;9.40;5.78;;;;;;;;;;5136496;27;20129;-61
2023/03/09 07:12:50;;;;;;;7.88;5.90;;;;;;;;;;5137640;27;20047;-62
2023/03/09 07:15:17;;;;;;;7.28;5.50;;;;;;;;;;5136139;27;20035;-62
2023/03/09 07:17:43;;;;;;;8.50;5.93;;;;;;;;;;5140102;27;20096;-62
2023/03/09 07:20:10;;;;;;;7.45;5.95;;;;;;;;;;5134935;27;20498;-62
2023/03/09 07:22:36;;;;;;;6.93;5.30;;;;;;;;;;5136631;27;20508;-61
2023/03/09 07:25:02;;;;;;;7.38;5.75;;;;;;;;;;5137303;27;20039;-62
2023/03/09 07:27:28;;;;;;;6.15;4.65;;;;;;;;;;5139903;27;20039;-61
2023/03/09 07:29:54;;;;;;;7.05;5.15;;;;;;;;;;5138363;27;20410;-62
2023/03/09 07:32:20;;;;;;;7.18;5.22;;;;;;;;;;5117669;27;20049;-61
2023/03/09 07:34:46;;;;;;;5.82;4.55;;;;;;;;;;5140408;27;20047;-61
2023/03/09 07:37:12;;;;;;;8.48;6.40;;;;;;;;;;5140180;27;20504;-62
2023/03/09 07:39:38;;;;;;;9.95;7.38;;;;;;;;;;5136272;27;20062;-62
2023/03/09 07:42:04;;;;;;;9.35;6.57;;;;;;;;;;5135257;27;20045;-62
2023/03/09 07:44:30;;;;;;;10.25;7.65;;;;;;;;;;5138811;27;20035;-62
2023/03/09 07:46:56;;;;;;;9.48;6.88;;;;;;;;;;5132826;27;20776;-62
2023/03/09 07:49:22;;;;;;;11.55;7.45;;;;;;;;;;5130199;27;20156;-62
2023/03/09 07:51:48;;;;;;;12.93;8.20;;;;;;;;;;5140074;27;20391;-62
2023/03/09 07:54:14;;;;;;;13.60;9.25;;;;;;;;;;5141360;27;20034;-62
2023/03/09 07:56:41;;;;;;;11.38;8.25;;;;;;;;;;5144317;27;20043;-62
2023/03/09 07:59:07;;;;;;;11.52;7.68;;;;;;;;;;5135274;27;20035;-62
2023/03/09 08:01:33;;;;;;;9.93;6.60;;;;;;;;;;5135012;27;20050;-62
2023/03/09 08:03:59;;;;;;;11.65;7.75;;;;;;;;;;5128906;27;20061;-61
2023/03/09 08:06:25;;;;;;;12.85;9.57;;;;;;;;;;5126955;27;20047;-62
2023/03/09 08:08:51;;;;;;;15.02;9.98;;;;;;;;;;5131597;27;20048;-62
2023/03/09 08:11:17;;;;;;;13.20;9.90;;;;;;;;;;5126045;27;20059;-62
2023/03/09 08:13:43;;;;;;;11.57;8.70;;;;;;;;;;5127469;27;20042;-62
2023/03/09 08:16:11;;;;;;;13.60;9.80;;;;;;;;;;5126099;27;20059;-62
2023/03/09 08:18:37;;;;;;;11.55;8.13;;;;;;;;;;5126120;27;20067;-62
2023/03/09 08:21:06;;;;;;;11.32;8.60;;;;;;;;;;5130144;27;20062;-58
2023/03/09 08:23:34;;;;;;;12.75;8.95;;;;;;;;;;5108193;27;20051;-61
2023/03/09 08:26:00;;;;;;;10.32;7.97;;;;;;;;;;5125581;27;20047;-57
2023/03/09 08:28:26;;;;;;;12.93;9.73;;;;;;;;;;5142324;27;20050;-61
2023/03/09 08:30:52;;;;;;;11.48;8.82;;;;;;;;;;5141078;27;20539;-59
2023/03/09 08:33:18;;;;;;;13.85;9.48;;;;;;;;;;5130740;27;20069;-63
2023/03/09 08:35:44;;;;;;;10.20;7.70;;;;;;;;;;5126485;27;20046;-62
2023/03/09 08:38:10;;;;;;;13.45;8.13;;;;;;;;;;5130688;27;20050;-63
2023/03/09 08:40:38;;;;;;;14.32;9.10;;;;;;;;;;5136658;27;20038;-62
2023/03/09 08:43:04;;;;;;;10.88;8.48;;;;;;;;;;5133196;27;20122;-62
2023/03/09 08:45:30;;;;;;;11.88;8.48;;;;;;;;;;5135118;27;20081;-63
2023/03/09 08:47:56;;;;;;;9.15;7.30;;;;;;;;;;5129285;27;20451;-63
2023/03/09 08:50:22;;;;;;;11.20;7.78;;;;;;;;;;5134454;27;20053;-62
2023/03/09 08:52:48;;;;;;;10.02;7.82;;;;;;;;;;5141359;27;20501;-63
2023/03/09 08:55:14;;;;;;;12.02;8.63;;;;;;;;;;5136962;27;20089;-63
2023/03/09 08:57:40;;;;;;;11.13;8.70;;;;;;;;;;5142965;27;20434;-62
2023/03/09 09:00:08;;;;;;;12.13;8.07;;;;;;;;;;5113619;27;20125;-63
2023/03/09 09:02:35;;;;;;;9.10;7.55;;;;;;;;;;5142145;27;20062;-63
2023/03/09 09:05:01;;;;;;;11.73;8.88;;;;;;;;;;5142563;27;20049;-63
2023/03/09 09:07:29;;;;;;;10.30;7.78;;;;;;;;;;5138849;27;20050;-62
2023/03/09 09:09:55;;;;;;;8.23;6.70;;;;;;;;;;5145560;27;20089;-62
2023/03/09 09:12:21;;;;;;;9.80;7.60;;;;;;;;;;5146854;27;20043;-62
2023/03/09 09:14:47;;;;;;;9.00;7.18;;;;;;;;;;5145497;27;20042;-61
2023/03/09 09:17:13;;;;;;;7.78;6.95;;;;;;;;;;5146100;27;20097;-62
2023/03/09 09:19:40;;;;;;;6.70;5.88;;;;;;;;;;5145810;27;20474;-62
2023/03/09 09:22:08;;;;;;;6.72;5.82;;;;;;;;;;5143463;27;20050;-62
2023/03/09 09:24:38;;;;;;;7.78;6.30;;;;;;;;;;5143801;27;20580;-62
2023/03/09 09:27:05;;;;;;;8.40;7.18;;;;;;;;;;5143197;27;20425;-62
2023/03/09 09:29:31;;;;;;;7.40;6.55;;;;;;;;;;5145959;27;20045;-63
2023/03/09 09:31:57;;;;;;;8.98;7.45;;;;;;;;;;5143182;27;20476;-62
2023/03/09 09:34:23;;;;;;;7.10;5.75;;;;;;;;;;5130591;27;20039;-62
2023/03/09 09:36:50;;;;;;;7.97;6.57;;;;;;;;;;5140037;27;20039;-62
2023/03/09 09:39:17;;;;;;;8.38;6.82;;;;;;;;;;5137465;27;20090;-62
2023/03/09 09:41:43;;;;;;;6.63;5.57;;;;;;;;;;5135678;27;20057;-62
2023/03/09 09:44:17;;;;;;;7.00;6.30;;;;;;;;;;5134484;27;20043;-62
2023/03/09 09:46:45;;;;;;;6.45;5.32;;;;;;;;;;5129771;27;20506;-62
2023/03/09 09:49:14;;;;;;;6.13;5.30;;;;;;;;;;5146403;27;20043;-64
2023/03/09 09:51:51;;;;;;;8.23;6.80;;;;;;;;;;5150095;27;20042;-63
2023/03/09 09:54:17;;;;;;;6.90;5.88;;;;;;;;;;5149935;27;20079;-63
2023/03/09 09:56:48;;;;;;;7.32;6.22;;;;;;;;;;5149566;27;20716;-63
2023/03/09 09:59:26;;;;;;;7.22;5.78;;;;;;;;;;5149644;27;20085;-63
2023/03/09 10:01:56;;;;;;;6.82;6.03;;;;;;;;;;5149578;27;20043;-63
2023/03/09 10:04:31;;;;;;;7.80;6.57;;;;;;;;;;5149339;27;20043;-63
2023/03/09 10:07:00;;;;;;;7.57;6.38;;;;;;;;;;5149541;27;20047;-63
2023/03/09 10:09:28;;;;;;;7.88;7.07;;;;;;;;;;5149128;27;20065;-63
2023/03/09 10:11:57;;;;;;;6.82;6.13;;;;;;;;;;5149459;27;20039;-64
2023/03/09 10:14:29;;;;;;;6.07;5.47;;;;;;;;;;5149687;27;20053;-64
2023/03/09 10:16:59;;;;;;;6.93;6.22;;;;;;;;;;5134134;27;20053;-63
2023/03/09 10:19:29;;;;;;;7.68;6.88;;;;;;;;;;5128827;27;20039;-63
2023/03/09 10:22:13;;;;;;;6.80;6.10;;;;;;;;;;5138630;27;20400;-63
2023/03/09 10:24:40;;;;;;;7.25;6.53;;;;;;;;;;5142788;27;20118;-63
2023/03/09 10:27:25;;;;;;;6.75;6.15;;;;;;;;;;5128497;27;20039;-63
2023/03/09 10:30:08;;;;;;;6.43;5.80;;;;;;;;;;5128054;27;20047;-63
2023/03/09 10:32:43;;;;;;;6.72;6.03;;;;;;;;;;5147986;27;20042;-63
2023/03/09 10:35:28;;;;;;;6.30;5.45;;;;;;;;;;5149005;27;20078;-63
2023/03/09 10:37:55;;;;;;;6.15;5.55;;;;;;;;;;5135612;27;20046;-64
2023/03/09 10:40:21;;;;;;;9.27;5.53;;;;;;;;;;5139020;27;20490;-64
2023/03/09 10:42:47;;;;;;;7.15;5.85;;;;;;;;;;5136588;27;20133;-63
2023/03/09 10:45:13;;;;;;;5.07;4.60;;;;;;;;;;5148323;27;20038;-64
2023/03/09 10:47:48;;;;;;;7.20;5.97;;;;;;;;;;5149293;27;20625;-64
2023/03/09 10:50:14;;;;;;;6.47;5.88;;;;;;;;;;5142113;27;20054;-64
2023/03/09 10:52:40;;;;;;;5.40;4.82;;;;;;;;;;5128840;27;20039;-63
2023/03/09 10:55:29;;;;;;;5.55;4.93;;;;;;;;;;5134865;27;20127;-63
2023/03/09 10:57:57;;;;;;;5.28;4.78;;;;;;;;;;5134728;27;20069;-63
2023/03/09 11:00:23;;;;;;;4.95;4.55;;;;;;;;;;5147895;27;20539;-63
2023/03/09 11:02:54;;;;;;;4.50;4.10;;;;;;;;;;5148421;27;20065;-63
2023/03/09 11:05:20;;;;;;;4.95;4.45;;;;;;;;;;5148260;27;20134;-63
2023/03/09 11:07:57;;;;;;;5.60;4.22;;;;;;;;;;5147600;27;20436;-63
2023/03/09 11:10:33;;;;;;;6.97;4.45;;;;;;;;;;5148329;27;20039;-63
2023/03/09 11:13:00;;;;;;;4.85;4.32;;;;;;;;;;5133729;27;20047;-63
2023/03/09 11:15:30;;;;;;;4.38;4.07;;;;;;;;;;5132983;27;20131;-63
2023/03/09 11:17:57;;;;;;;3.72;3.42;;;;;;;;;;5127701;27;20078;-63
2023/03/09 11:20:23;;;;;;;4.45;3.95;;;;;;;;;;5127236;27;20627;-63
2023/03/09 11:22:53;;;;;;;4.75;4.03;;;;;;;;;;5147064;27;20520;-63
2023/03/09 11:25:43;;;;;;;4.20;3.80;;;;;;;;;;5145053;27;20043;-63
2023/03/09 11:28:16;;;;;;;4.63;4.22;;;;;;;;;;5121203;27;20457;-64
2023/03/09 11:30:42;;;;;;;3.38;3.08;;;;;;;;;;5128360;27;20077;-63
2023/03/09 11:33:10;;;;;;;4.15;3.40;;;;;;;;;;5127861;27;20039;-63
2023/03/09 11:35:37;;;;;;;4.05;3.65;;;;;;;;;;5127182;27;20051;-63
2023/03/09 11:38:05;;;;;;;4.45;3.80;;;;;;;;;;5138043;27;20038;-62
2023/03/09 11:40:33;;;;;;;4.28;3.88;;;;;;;;;;5126579;27;20530;-63
2023/03/09 11:42:59;;;;;;;3.63;3.33;;;;;;;;;;5126380;27;20674;-63
2023/03/09 11:45:30;;;;;;;3.53;3.22;;;;;;;;;;5127188;27;20050;-63
2023/03/09 11:48:08;;;;;;;3.50;3.20;;;;;;;;;;5126001;27;20047;-64
2023/03/09 11:50:36;;;;;;;4.22;3.90;;;;;;;;;;5126873;27;20184;-63
2023/03/09 11:53:05;;;;;;;3.97;3.58;;;;;;;;;;5107803;27;20130;-63
2023/03/09 11:55:35;;;;;;;4.47;4.05;;;;;;;;;;5125948;27;20055;-63
2023/03/09 11:58:03;;;;;;;4.40;4.00;;;;;;;;;;5126329;27;20082;-63
2023/03/09 12:00:29;;;;;;;5.50;4.35;;;;;;;;;;5126947;27;20092;-63
2023/03/09 12:02:58;;;;;;;4.15;3.42;;;;;;;;;;5135367;27;20071;-63
2023/03/09 12:05:26;;;;;;;4.10;3.70;;;;;;;;;;5144102;27;20132;-63
2023/03/09 12:07:58;;;;;;;5.00;4.00;;;;;;;;;;5126530;27;20489;-62
2023/03/09 12:10:28;;;;;;;3.90;3.50;;;;;;;;;;5125960;27;20051;-63
2023/03/09 12:12:56;;;;;;;4.03;3.72;;;;;;;;;;5126386;27;20039;-62
2023/03/09 12:15:36;;;;;;;3.42;3.13;;;;;;;;;;5126250;27;20481;-63
2023/03/09 12:18:04;;;;;;;3.97;3.42;;;;;;;;;;5125825;27;20094;-63
2023/03/09 12:20:32;;;;;;;3.47;3.17;;;;;;;;;;5126453;27;20050;-63
2023/03/09 12:22:58;;;;;;;3.50;3.20;;;;;;;;;;5114636;27;20054;-63
2023/03/09 12:25:25;;;;;;;4.30;3.90;;;;;;;;;;5125595;27;20038;-63
2023/03/09 12:27:57;;;;;;;4.72;3.53;;;;;;;;;;5127448;27;20051;-63
2023/03/09 12:30:28;;;;;;;5.05;4.55;;;;;;;;;;5124177;27;20096;-63
2023/03/09 12:32:56;;;;;;;4.47;3.40;;;;;;;;;;5124096;27;20066;-63
2023/03/09 12:35:22;;;;;;;4.75;4.15;;;;;;;;;;5123929;27;20541;-63
2023/03/09 12:37:52;;;;;;;4.97;3.80;;;;;;;;;;5123143;27;20050;-63
2023/03/09 12:40:24;;;;;;;4.32;3.92;;;;;;;;;;5123856;27;20050;-63
2023/03/09 12:42:52;;;;;;;4.38;3.97;;;;;;;;;;5123598;27;20047;-64
2023/03/09 12:45:18;;;;;;;4.05;3.65;;;;;;;;;;5124734;27;20655;-63
2023/03/09 12:47:44;;;;;;;3.72;3.38;;;;;;;;;;5126110;27;20051;-63
2023/03/09 12:50:22;;;;;;;4.40;4.00;;;;;;;;;;5126253;27;20134;-63
2023/03/09 12:53:00;;;;;;;4.43;3.78;;;;;;;;;;5125541;27;20098;-63
2023/03/09 12:55:43;;;;;;;4.28;3.97;;;;;;;;;;5126376;27;20045;-63
2023/03/09 12:58:21;;;;;;;3.47;3.15;;;;;;;;;;5125267;27;20058;-63
2023/03/09 13:00:58;;;;;;;4.93;4.35;;;;;;;;;;5126004;27;20118;-63
2023/03/09 13:03:26;;;;;;;4.65;4.18;;;;;;;;;;5129394;27;20161;-63
2023/03/09 13:05:52;;;;;;;5.60;4.22;;;;;;;;;;5129360;27;20470;-62
2023/03/09 13:08:21;;;;;;;5.00;4.28;;;;;;;;;;5135245;27;20047;-62
2023/03/09 13:10:47;;;;;;;4.88;4.38;;;;;;;;;;5127122;27;20509;-62
2023/03/09 13:13:32;;;;;;;3.72;3.42;;;;;;;;;;5130219;27;20047;-62
2023/03/09 13:16:16;;;;;;;5.00;4.20;;;;;;;;;;5132688;27;20489;-62
2023/03/09 13:18:42;;;;;;;4.55;4.15;;;;;;;;;;5140696;27;20134;-62
2023/03/09 13:21:27;;;;;;;3.15;2.85;;;;;;;;;;5139695;27;20118;-62
2023/03/09 13:23:53;;;;;;;4.25;3.50;;;;;;;;;;5125436;28;20050;-62
2023/03/09 13:26:19;;;;;;;4.13;3.72;;;;;;;;;;5125158;27;20723;-62
2023/03/09 13:28:47;;;;;;;5.28;4.72;;;;;;;;;;5129525;27;20054;-62
2023/03/09 13:31:32;;;;;;;6.40;4.25;;;;;;;;;;5130286;27;20047;-62
2023/03/09 13:33:59;;;;;;;5.15;3.90;;;;;;;;;;5124557;27;20053;-62
2023/03/09 13:36:26;;;;;;;4.38;3.95;;;;;;;;;;5135595;27;20053;-62
2023/03/09 13:38:59;;;;;;;3.90;3.58;;;;;;;;;;5127687;27;20687;-62
2023/03/09 13:41:27;;;;;;;4.18;3.40;;;;;;;;;;5127983;27;20051;-62
2023/03/09 13:43:54;;;;;;;4.10;3.72;;;;;;;;;;5125188;27;20396;-62
2023/03/09 13:46:22;;;;;;;3.97;3.58;;;;;;;;;;5130415;27;20042;-63
2023/03/09 13:48:53;;;;;;;3.95;3.55;;;;;;;;;;5135279;27;20039;-62
2023/03/09 13:51:27;;;;;;;4.28;3.90;;;;;;;;;;5128131;27;20042;-62
2023/03/09 13:53:53;;;;;;;5.15;4.45;;;;;;;;;;5130175;27;20050;-62
2023/03/09 13:56:19;;;;;;;4.50;3.97;;;;;;;;;;5128972;27;20079;-62
2023/03/09 13:58:46;;;;;;;4.20;3.80;;;;;;;;;;5124995;27;20120;-62
2023/03/09 14:01:20;;;;;;;5.70;3.92;;;;;;;;;;5128807;27;20095;-62
2023/03/09 14:03:49;;;;;;;4.18;3.88;;;;;;;;;;5128254;27;20051;-62
2023/03/09 14:06:20;;;;;;;4.50;4.10;;;;;;;;;;5125197;27;20047;-62
2023/03/09 14:08:54;;;;;;;4.63;4.10;;;;;;;;;;5124272;27;20054;-62
2023/03/09 14:11:25;;;;;;;3.97;3.67;;;;;;;;;;5126964;27;20043;-62
2023/03/09 14:13:57;;;;;;;4.70;4.30;;;;;;;;;;5126666;27;20524;-62
2023/03/09 14:16:23;;;;;;;5.00;4.50;;;;;;;;;;5132364;27;20054;-62
2023/03/09 14:18:51;;;;;;;4.90;4.43;;;;;;;;;;5137132;27;20071;-63
2023/03/09 14:21:24;;;;;;;4.45;3.78;;;;;;;;;;5130610;27;20350;-62
2023/03/09 14:23:50;;;;;;;5.32;4.82;;;;;;;;;;5127479;27;20402;-62
2023/03/09 14:26:27;;;;;;;5.90;5.30;;;;;;;;;;5128310;27;20050;-62
2023/03/09 14:29:12;;;;;;;6.57;5.70;;;;;;;;;;5133227;27;20046;-62
2023/03/09 14:31:38;;;;;;;5.22;4.78;;;;;;;;;;5129337;27;20043;-62
2023/03/09 14:34:05;;;;;;;5.85;5.35;;;;;;;;;;5109800;27;20481;-62
2023/03/09 14:36:39;;;;;;;5.63;5.10;;;;;;;;;;5132005;27;20067;-62
2023/03/09 14:39:19;;;;;;;5.22;4.72;;;;;;;;;;5135318;27;20051;-63
2023/03/09 14:41:46;;;;;;;6.18;5.57;;;;;;;;;;5129221;27;20039;-62
2023/03/09 14:44:28;;;;;;;6.93;5.65;;;;;;;;;;5128053;27;20409;-62
2023/03/09 14:46:54;;;;;;;5.60;5.10;;;;;;;;;;5136622;27;20039;-62